QFA475 YSSY-YMML
Flight info
| Callsign | QFA475 |
|---|---|
| Flight time | N/A |
| Altitude | 34000 |
| Route | YSSY/34R 3522S15026E TANTA Q29 BOOIN BOIN1A/34 |
| Aircraft | A332/H-SDE3GHIJ2J3J5M1RVWXY/LB2D1 |
Departure
| Time | N/A |
|---|---|
| Airport | Sydney Kingsford Smith International Airport (YSSY) |
Arrival
| Time | 2026-05-01 11:05 |
|---|---|
| Airport | Melbourne Airport (YMML) |
| Time | Latitude | Longitude | Altitude | Speed | Heading |
|---|---|---|---|---|---|
| 2026-05-01 10:50 | -37.39051 | 145.75286 | 8755 ft | 285 kts | 237° |
| 2026-05-01 10:50 | -37.40153 | 145.73179 | 8758 ft | 285 kts | 237° |
| 2026-05-01 10:50 | -37.41226 | 145.71128 | 8756 ft | 284 kts | 237° |
| 2026-05-01 10:50 | -37.42310 | 145.69053 | 8753 ft | 284 kts | 237° |
| 2026-05-01 10:51 | -37.43392 | 145.66980 | 8754 ft | 284 kts | 237° |
| 2026-05-01 10:51 | -37.44478 | 145.64901 | 8756 ft | 284 kts | 236° |
| 2026-05-01 10:51 | -37.45607 | 145.62858 | 8757 ft | 285 kts | 234° |
| 2026-05-01 10:51 | -37.46773 | 145.60840 | 8755 ft | 285 kts | 234° |
| 2026-05-01 10:52 | -37.47947 | 145.58821 | 8759 ft | 285 kts | 234° |
| 2026-05-01 10:52 | -37.49118 | 145.56811 | 8756 ft | 285 kts | 234° |
| 2026-05-01 10:52 | -37.50289 | 145.54798 | 8755 ft | 285 kts | 234° |
| 2026-05-01 10:52 | -37.51457 | 145.52789 | 8747 ft | 281 kts | 234° |
| 2026-05-01 10:53 | -37.52582 | 145.50854 | 8754 ft | 267 kts | 234° |
| 2026-05-01 10:53 | -37.53666 | 145.48986 | 8750 ft | 262 kts | 234° |
| 2026-05-01 10:53 | -37.54741 | 145.47133 | 8758 ft | 262 kts | 234° |
| 2026-05-01 10:53 | -37.55815 | 145.45279 | 8755 ft | 262 kts | 234° |
| 2026-05-01 10:54 | -37.56888 | 145.43426 | 8759 ft | 261 kts | 234° |
| 2026-05-01 10:54 | -37.57960 | 145.41575 | 8759 ft | 261 kts | 234° |
| 2026-05-01 10:54 | -37.59031 | 145.39725 | 8656 ft | 262 kts | 234° |
| 2026-05-01 10:54 | -37.60119 | 145.37843 | 8274 ft | 266 kts | 234° |
| 2026-05-01 10:55 | -37.61198 | 145.35977 | 8069 ft | 261 kts | 234° |
| 2026-05-01 10:55 | -37.62262 | 145.34137 | 7811 ft | 258 kts | 234° |
| 2026-05-01 10:55 | -37.63317 | 145.32310 | 7517 ft | 257 kts | 234° |
| 2026-05-01 10:55 | -37.64367 | 145.30490 | 7245 ft | 256 kts | 234° |
| 2026-05-01 10:56 | -37.65411 | 145.28680 | 6962 ft | 255 kts | 234° |
| 2026-05-01 10:56 | -37.66451 | 145.26877 | 6680 ft | 254 kts | 234° |
| 2026-05-01 10:56 | -37.67486 | 145.25080 | 6403 ft | 252 kts | 234° |
| 2026-05-01 10:56 | -37.68516 | 145.23292 | 6120 ft | 251 kts | 234° |
| 2026-05-01 10:57 | -37.69529 | 145.21533 | 5836 ft | 251 kts | 234° |
| 2026-05-01 10:57 | -37.70560 | 145.19740 | 5376 ft | 257 kts | 234° |
| 2026-05-01 10:57 | -37.71634 | 145.17872 | 4770 ft | 268 kts | 234° |
| 2026-05-01 10:57 | -37.72752 | 145.15927 | 4172 ft | 278 kts | 234° |
| 2026-05-01 10:58 | -37.73887 | 145.13952 | 3822 ft | 273 kts | 234° |
| 2026-05-01 10:58 | -37.74958 | 145.12087 | 3741 ft | 251 kts | 234° |
| 2026-05-01 10:58 | -37.75954 | 145.10352 | 3748 ft | 238 kts | 234° |
| 2026-05-01 10:58 | -37.76897 | 145.08707 | 3744 ft | 225 kts | 234° |
| 2026-05-01 10:59 | -37.77801 | 145.07127 | 3752 ft | 221 kts | 234° |
| 2026-05-01 10:59 | -37.78687 | 145.05580 | 3753 ft | 211 kts | 234° |
| 2026-05-01 10:59 | -37.79510 | 145.04142 | 3766 ft | 194 kts | 234° |
| 2026-05-01 10:59 | -37.80289 | 145.02783 | 3751 ft | 189 kts | 234° |
| 2026-05-01 11:00 | -37.81035 | 145.01414 | 3751 ft | 189 kts | 240° |
| 2026-05-01 11:00 | -37.81525 | 144.99879 | 3754 ft | 188 kts | 254° |
| 2026-05-01 11:00 | -37.81837 | 144.98270 | 3753 ft | 189 kts | 257° |
| 2026-05-01 11:00 | -37.82116 | 144.96648 | 3613 ft | 189 kts | 258° |
| 2026-05-01 11:01 | -37.82388 | 144.95001 | 3253 ft | 194 kts | 259° |
| 2026-05-01 11:01 | -37.82620 | 144.93323 | 2892 ft | 192 kts | 261° |
| 2026-05-01 11:01 | -37.82828 | 144.91692 | 2763 ft | 186 kts | 261° |
| 2026-05-01 11:01 | -37.83028 | 144.90074 | 2756 ft | 186 kts | 262° |
| 2026-05-01 11:02 | -37.83043 | 144.88449 | 2698 ft | 186 kts | 282° |
| 2026-05-01 11:02 | -37.82413 | 144.87067 | 2379 ft | 184 kts | 321° |
| 2026-05-01 11:02 | -37.81252 | 144.86436 | 2271 ft | 184 kts | 347° |
| 2026-05-01 11:02 | -37.79981 | 144.86169 | 2259 ft | 186 kts | 352° |
| 2026-05-01 11:03 | -37.78697 | 144.85954 | 2256 ft | 186 kts | 352° |
| 2026-05-01 11:03 | -37.77436 | 144.85751 | 2129 ft | 179 kts | 352° |
| 2026-05-01 11:03 | -37.76245 | 144.85544 | 1948 ft | 167 kts | 351° |
| 2026-05-01 11:03 | -37.75115 | 144.85315 | 1676 ft | 162 kts | 350° |
| 2026-05-01 11:04 | -37.74012 | 144.85114 | 1377 ft | 157 kts | 351° |
| 2026-05-01 11:04 | -37.72979 | 144.84924 | 1212 ft | 143 kts | 350° |
| 2026-05-01 11:04 | -37.72034 | 144.84744 | 1025 ft | 134 kts | 351° |
| 2026-05-01 11:04 | -37.71133 | 144.84577 | 825 ft | 132 kts | 351° |
| 2026-05-01 11:05 | -37.70232 | 144.84404 | 664 ft | 127 kts | 350° |
| 2026-05-01 11:05 | -37.69387 | 144.84245 | 506 ft | 121 kts | 351° |
| 2026-05-01 11:05 | -37.68544 | 144.84088 | 352 ft | 117 kts | 351° |
| 2026-05-01 11:05 | -37.67980 | 144.83992 | 359 ft | 32 kts | 6° |
| 2026-05-01 11:06 | -37.67882 | 144.84083 | 361 ft | 0 kts | 69° |
| 2026-05-01 11:06 | -37.67877 | 144.84104 | 359 ft | 12 kts | 73° |
| 2026-05-01 11:06 | -37.67870 | 144.84141 | 362 ft | 0 kts | 78° |
| 2026-05-01 11:07 | -37.67857 | 144.84161 | 359 ft | 5 kts | 38° |
| 2026-05-01 11:07 | -37.67797 | 144.84170 | 362 ft | 15 kts | 357° |
| 2026-05-01 11:07 | -37.67675 | 144.84152 | 366 ft | 17 kts | 353° |
| 2026-05-01 11:08 | -37.67568 | 144.84132 | 364 ft | 14 kts | 351° |
| 2026-05-01 11:08 | -37.67481 | 144.84114 | 372 ft | 11 kts | 350° |
| 2026-05-01 11:08 | -37.67298 | 144.84079 | 375 ft | 15 kts | 355° |
| 2026-05-01 11:09 | -37.67221 | 144.84158 | 375 ft | 16 kts | 77° |
| 2026-05-01 11:09 | -37.67206 | 144.84297 | 373 ft | 16 kts | 84° |
| 2026-05-01 11:09 | -37.67196 | 144.84449 | 372 ft | 18 kts | 86° |
| 2026-05-01 11:10 | -37.67152 | 144.84690 | 360 ft | 12 kts | 32° |
| 2026-05-01 11:10 | -37.67134 | 144.84704 | 364 ft | 0 kts | 31° |